Terminal Aerodrome Forecast
Issued by NWS Lake Charles, LA

Home | Current Version | Previous Version | Text Only | Print | Product List | Glossary On
Versions: 1 2 3 4 5 6 7 8 9 10 11 12 13 14 15 16 17 18 19
000
FTUS44 KLCH 290520
TAFBPT
TAF
KBPT 290520Z 2906/3006 16006KT P6SM FEW025 SCT250
     FM290900 15005KT P6SM BKN025
     FM291200 16004KT P6SM VCSH BKN020
     FM291500 17008KT P6SM VCSH BKN035
     FM291800 18010KT P6SM VCTS BKN040CB
     FM300200 16005KT P6SM SCT030 BKN200=

USA.gov is the U.S. government's official web portal to all federal, state and local government web resources and services.